Time;durP1;ratioP1;P1;durP2;ratioP2;P2;SDS_P1;SDS_P2;PMS_P1;PMS_P2;Temp;Humidity;BMP_temperature;BMP_pressure;BME280_temperature;BME280_humidity;BME280_pressure;Samples;Min_cycle;Max_cycle;Signal;HPM_P1;HPM_P2
2021/04/09 00:00:05;;;;;;;7.57;5.00;;;1.90;92.60;;;;;;5134152;27;20418;-74
2021/04/09 00:02:30;;;;;;;7.88;3.95;;;1.90;92.60;;;;;;5134041;27;20072;-75
2021/04/09 00:04:56;;;;;;;10.65;4.60;;;1.80;93.00;;;;;;5134699;27;20409;-74
2021/04/09 00:07:22;;;;;;;10.13;4.45;;;1.80;92.70;;;;;;5133072;27;20107;-75
2021/04/09 00:09:47;;;;;;;7.30;3.85;;;1.80;92.20;;;;;;5134121;27;20035;-75
2021/04/09 00:12:13;;;;;;;6.47;3.97;;;1.90;92.40;;;;;;5134159;27;20035;-75
2021/04/09 00:14:39;;;;;;;9.18;3.72;;;1.90;92.10;;;;;;5134206;27;20027;-75
2021/04/09 00:17:06;;;;;;;19.73;3.83;;;1.90;91.80;;;;;;5134049;27;20015;-74
2021/04/09 00:19:32;;;;;;;12.07;4.72;;;1.90;90.80;;;;;;5133834;27;20042;-75
2021/04/09 00:21:58;;;;;;;5.15;3.58;;;1.80;91.20;;;;;;5133174;27;20579;-75
2021/04/09 00:24:26;;;;;;;9.13;3.80;;;1.80;91.10;;;;;;5133986;27;20098;-75
2021/04/09 00:26:52;;;;;;;8.18;3.95;;;1.70;91.20;;;;;;5133842;27;20023;-74
2021/04/09 00:29:18;;;;;;;7.30;3.47;;;1.70;91.30;;;;;;5133730;27;20025;-74
2021/04/09 00:31:44;;;;;;;7.07;3.75;;;1.70;91.10;;;;;;5132755;27;20023;-75
2021/04/09 00:34:09;;;;;;;6.18;3.00;;;1.80;90.80;;;;;;5133739;27;20024;-75
2021/04/09 00:36:36;;;;;;;7.30;3.35;;;1.90;90.40;;;;;;5133776;27;20023;-75
2021/04/09 00:39:04;;;;;;;8.18;3.83;;;1.80;90.30;;;;;;5133609;27;20026;-74
2021/04/09 00:41:30;;;;;;;7.25;3.03;;;1.90;90.00;;;;;;5133557;27;20054;-75
2021/04/09 00:43:55;;;;;;;8.02;3.13;;;1.90;90.70;;;;;;5133883;27;20432;-74
2021/04/09 00:46:22;;;;;;;6.55;3.05;;;1.80;90.20;;;;;;5133557;27;20076;-75
2021/04/09 00:48:48;;;;;;;27.75;4.18;;;1.80;90.40;;;;;;5133642;27;20359;-74
2021/04/09 00:51:14;;;;;;;6.93;3.20;;;1.80;90.10;;;;;;5133659;27;20115;-74
2021/04/09 00:53:42;;;;;;;8.00;3.28;;;1.80;89.40;;;;;;5133337;27;20035;-74
2021/04/09 00:56:10;;;;;;;11.18;2.90;;;1.70;90.00;;;;;;5133411;27;20023;-74
2021/04/09 00:58:37;;;;;;;6.28;3.25;;;1.70;90.30;;;;;;5133311;27;20050;-74
2021/04/09 01:01:04;;;;;;;6.03;3.58;;;1.80;90.40;;;;;;5132023;27;20033;-74
2021/04/09 01:03:31;;;;;;;6.57;3.13;;;1.90;90.30;;;;;;5133105;27;20019;-74
2021/04/09 01:05:57;;;;;;;6.30;2.60;;;1.90;90.00;;;;;;5133774;27;20023;-74
2021/04/09 01:08:23;;;;;;;3.55;2.80;;;1.90;88.70;;;;;;5133073;27;20038;-74
2021/04/09 01:10:48;;;;;;;9.23;2.88;;;1.90;88.00;;;;;;5133507;27;20023;-74
2021/04/09 01:13:14;;;;;;;9.05;2.63;;;1.90;88.40;;;;;;5133285;27;20023;-74
2021/04/09 01:15:40;;;;;;;3.97;2.65;;;1.90;87.90;;;;;;5133144;27;20030;-74
2021/04/09 01:18:19;;;;;;;10.50;3.10;;;1.80;87.70;;;;;;5133065;27;20395;-74
2021/04/09 01:21:06;;;;;;;9.63;2.97;;;1.80;87.50;;;;;;5133023;27;20054;-74
2021/04/09 01:23:54;;;;;;;3.80;2.53;;;1.80;88.00;;;;;;5133077;27;20073;-74
2021/04/09 01:26:47;;;;;;;8.40;2.90;;;1.90;88.50;;;;;;5133016;27;20387;-74
2021/04/09 01:30:03;;;;;;;4.88;2.40;;;1.90;88.30;;;;;;5131541;28;20054;-74
2021/04/09 01:32:30;;;;;;;5.22;3.45;;;1.70;87.10;;;;;;5100916;27;20039;-74
2021/04/09 01:35:06;;;;;;;9.40;2.80;;;1.80;87.50;;;;;;5139749;27;20072;-74
2021/04/09 01:37:39;;;;;;;3.63;2.47;;;1.80;86.60;;;;;;5139798;27;20027;-74
2021/04/09 01:40:08;;;;;;;4.00;2.50;;;1.70;87.00;;;;;;5139603;27;20084;-74
2021/04/09 01:42:37;;;;;;;7.72;3.00;;;1.60;86.90;;;;;;5139812;27;20094;-74
2021/04/09 01:45:05;;;;;;;5.53;3.47;;;1.60;87.00;;;;;;5139717;27;20019;-74
2021/04/09 01:47:32;;;;;;;6.70;2.83;;;1.70;86.80;;;;;;5139616;27;20023;-74
2021/04/09 01:50:01;;;;;;;5.63;2.58;;;1.80;85.70;;;;;;5139591;27;20378;-74
2021/04/09 01:52:29;;;;;;;7.78;2.60;;;1.70;86.20;;;;;;5139487;27;20030;-74
2021/04/09 01:54:58;;;;;;;6.97;3.00;;;1.70;85.80;;;;;;5139701;27;20030;-74
2021/04/09 01:57:25;;;;;;;9.75;2.78;;;1.60;86.30;;;;;;5139502;27;20424;-74
2021/04/09 01:59:52;;;;;;;5.28;2.83;;;1.70;86.90;;;;;;5139374;27;20295;-74
2021/04/09 02:02:19;;;;;;;10.35;2.50;;;1.90;85.90;;;;;;5139213;27;20022;-74
2021/04/09 02:04:47;;;;;;;3.70;2.72;;;2.00;85.40;;;;;;5139579;27;20023;-74
2021/04/09 02:07:18;;;;;;;4.63;2.40;;;1.90;84.30;;;;;;5139489;27;20034;-74
2021/04/09 02:09:45;;;;;;;5.63;2.70;;;1.90;85.40;;;;;;5139396;27;20207;-74
2021/04/09 02:12:12;;;;;;;5.47;2.25;;;1.80;84.30;;;;;;5139366;27;20268;-74
2021/04/09 02:14:41;;;;;;;3.33;2.30;;;1.80;83.90;;;;;;5139439;27;20015;-74
2021/04/09 02:17:09;;;;;;;5.13;2.20;;;1.70;83.60;;;;;;5139506;27;20022;-74
2021/04/09 02:19:35;;;;;;;5.60;2.50;;;1.60;84.20;;;;;;5139191;27;20494;-74
2021/04/09 02:22:01;;;;;;;4.63;2.78;;;1.50;85.10;;;;;;5139330;27;20016;-74
2021/04/09 02:24:26;;;;;;;7.28;2.58;;;1.60;84.80;;;;;;5139334;27;20360;-74
2021/04/09 02:26:53;;;;;;;2.97;2.53;;;1.60;84.60;;;;;;5139239;27;20051;-74
2021/04/09 02:29:20;;;;;;;5.47;2.50;;;1.80;85.00;;;;;;5139169;27;20020;-74
2021/04/09 02:31:46;;;;;;;4.25;2.35;;;1.70;83.90;;;;;;5139302;27;20106;-74
2021/04/09 02:34:12;;;;;;;8.18;2.35;;;1.60;84.10;;;;;;5138109;27;20737;-74
2021/04/09 02:36:38;;;;;;;6.07;2.90;;;1.70;84.00;;;;;;5139192;27;20050;-74
2021/04/09 02:39:18;;;;;;;3.88;2.40;;;1.80;84.30;;;;;;5139079;27;20498;-74
2021/04/09 02:41:49;;;;;;;5.07;2.22;;;2.00;85.20;;;;;;5139109;27;20019;-74
2021/04/09 02:44:15;;;;;;;4.28;2.42;;;2.10;83.20;;;;;;5136820;27;20084;-74
2021/04/09 02:47:04;;;;;;;3.00;1.88;;;2.00;82.70;;;;;;5136034;27;20200;-74
2021/04/09 02:49:42;;;;;;;4.28;1.98;;;2.10;82.30;;;;;;5135673;27;20551;-74
2021/04/09 02:52:18;;;;;;;4.05;2.65;;;2.20;81.90;;;;;;5135833;27;20019;-74
2021/04/09 02:54:51;;;;;;;6.35;2.03;;;2.20;81.40;;;;;;5135838;27;20027;-74
2021/04/09 02:57:19;;;;;;;7.07;2.80;;;2.00;81.00;;;;;;5135775;27;20075;-74
2021/04/09 02:59:46;;;;;;;8.02;2.10;;;1.90;81.40;;;;;;5135404;27;20027;-74
2021/04/09 03:02:12;;;;;;;12.75;3.97;;;1.90;80.90;;;;;;5134091;27;20069;-74
2021/04/09 03:04:39;;;;;;;5.47;2.45;;;1.90;81.60;;;;;;5135861;27;20008;-74
2021/04/09 03:07:05;;;;;;;7.43;2.25;;;2.00;82.00;;;;;;5135556;27;20024;-74
2021/04/09 03:09:31;;;;;;;11.70;2.20;;;1.90;80.50;;;;;;5135346;27;20159;-74
2021/04/09 03:11:57;;;;;;;4.13;1.80;;;1.80;80.20;;;;;;5135476;27;20015;-74
2021/04/09 03:14:23;;;;;;;7.03;2.72;;;1.80;81.20;;;;;;5135328;27;20026;-74
2021/04/09 03:16:56;;;;;;;8.43;2.60;;;1.80;81.20;;;;;;5135322;27;20019;-74
2021/04/09 03:19:22;;;;;;;9.65;2.50;;;1.90;81.50;;;;;;5135237;27;20159;-75
2021/04/09 03:21:48;;;;;;;11.80;2.45;;;2.00;80.90;;;;;;5135156;27;20472;-74
2021/04/09 03:24:13;;;;;;;10.48;2.58;;;2.00;80.30;;;;;;5135242;27;20019;-74
2021/04/09 03:26:39;;;;;;;11.48;2.30;;;2.00;81.00;;;;;;5135319;27;20371;-74
2021/04/09 03:29:05;;;;;;;5.85;2.17;;;2.10;80.00;;;;;;5135002;27;20115;-74
2021/04/09 03:31:30;;;;;;;9.38;2.20;;;1.80;79.40;;;;;;5135142;27;20034;-74
2021/04/09 03:33:56;;;;;;;8.43;2.45;;;1.60;80.40;;;;;;5134988;27;20025;-74
2021/04/09 03:36:22;;;;;;;8.52;3.22;;;1.60;81.60;;;;;;5134934;27;20035;-74
2021/04/09 03:38:48;;;;;;;8.02;3.33;;;1.70;80.30;;;;;;5134754;27;20023;-74
2021/04/09 03:41:13;;;;;;;6.90;2.50;;;1.60;80.30;;;;;;5134614;27;20019;-74
2021/04/09 03:43:39;;;;;;;3.50;2.50;;;1.60;80.40;;;;;;5133697;27;20011;-74
2021/04/09 03:46:05;;;;;;;7.95;2.50;;;1.70;80.30;;;;;;5134745;27;20494;-74
2021/04/09 03:48:30;;;;;;;6.20;2.13;;;1.80;80.50;;;;;;5134881;27;20023;-74
2021/04/09 03:50:56;;;;;;;3.65;1.95;;;1.80;79.40;;;;;;5135075;27;20031;-74
2021/04/09 03:53:22;;;;;;;6.07;3.10;;;1.80;78.80;;;;;;5134480;27;20045;-74
2021/04/09 03:55:47;;;;;;;6.50;2.25;;;1.70;79.00;;;;;;5133263;27;20122;-74
2021/04/09 03:58:13;;;;;;;8.43;2.38;;;1.60;79.40;;;;;;5134443;27;20079;-74
2021/04/09 04:00:39;;;;;;;6.30;3.08;;;1.50;79.30;;;;;;5134433;27;20023;-74
2021/04/09 04:03:05;;;;;;;5.63;2.35;;;1.70;80.50;;;;;;5134331;27;20034;-74
2021/04/09 04:05:31;;;;;;;6.57;1.92;;;1.70;79.40;;;;;;5134362;27;20023;-74
2021/04/09 04:07:56;;;;;;;21.17;2.80;;;1.70;78.70;;;;;;5134187;27;20387;-74
2021/04/09 04:10:22;;;;;;;10.30;2.50;;;1.70;78.70;;;;;;5134151;27;20030;-74
2021/04/09 04:12:48;;;;;;;6.38;2.85;;;1.60;78.90;;;;;;5134283;27;20030;-74
2021/04/09 04:15:14;;;;;;;5.53;2.78;;;1.60;78.50;;;;;;5134243;27;20023;-74
2021/04/09 04:17:40;;;;;;;2.63;1.98;;;1.60;78.90;;;;;;5134047;27;20083;-74
2021/04/09 04:20:06;;;;;;;10.32;2.25;;;1.50;78.30;;;;;;5133859;27;20039;-74
2021/04/09 04:22:32;;;;;;;8.50;2.88;;;1.50;78.30;;;;;;5133970;27;20024;-74
2021/04/09 04:24:58;;;;;;;6.85;2.63;;;1.50;78.80;;;;;;5133894;27;20383;-74
2021/04/09 04:27:24;;;;;;;15.40;5.80;;;1.50;78.50;;;;;;5133996;27;20031;-74
2021/04/09 04:29:50;;;;;;;5.22;2.10;;;1.50;78.50;;;;;;5133789;27;20027;-74
2021/04/09 04:32:16;;;;;;;13.95;3.47;;;1.50;78.20;;;;;;5133878;27;20027;-74
2021/04/09 04:34:41;;;;;;;22.45;3.40;;;1.60;78.20;;;;;;5133783;27;20027;-74
2021/04/09 04:37:07;;;;;;;15.43;2.80;;;1.50;78.30;;;;;;5133716;27;20023;-74
2021/04/09 04:39:33;;;;;;;6.45;2.72;;;1.60;77.70;;;;;;5133490;27;20015;-74
2021/04/09 04:41:59;;;;;;;6.60;2.63;;;1.50;78.20;;;;;;5133720;27;20026;-74
2021/04/09 04:44:25;;;;;;;35.40;3.88;;;1.50;77.70;;;;;;5133637;27;20022;-74
2021/04/09 04:46:50;;;;;;;14.32;2.75;;;1.50;78.30;;;;;;5133577;27;20027;-74
2021/04/09 04:49:16;;;;;;;15.05;2.50;;;1.50;77.60;;;;;;5133496;27;20023;-74
2021/04/09 04:51:42;;;;;;;3.83;2.08;;;1.60;78.10;;;;;;5133422;27;20034;-74
2021/04/09 04:54:08;;;;;;;7.40;2.50;;;1.60;77.60;;;;;;5133275;27;20371;-74
2021/04/09 04:56:33;;;;;;;14.23;3.92;;;1.60;76.90;;;;;;5133446;27;20027;-74
2021/04/09 04:58:59;;;;;;;3.10;1.90;;;1.70;76.80;;;;;;5133348;27;20050;-74
2021/04/09 05:01:25;;;;;;;11.43;2.60;;;1.80;76.60;;;;;;5133296;27;20049;-74
2021/04/09 05:03:50;;;;;;;3.47;2.47;;;1.80;76.50;;;;;;5133045;27;20030;-74
2021/04/09 05:06:16;;;;;;;8.75;2.92;;;1.80;76.30;;;;;;5133113;27;20498;-74
2021/04/09 05:08:42;;;;;;;9.07;1.98;;;1.90;76.10;;;;;;5132683;27;20101;-74
2021/04/09 05:11:08;;;;;;;9.20;2.33;;;1.90;75.50;;;;;;5133223;27;20023;-74
2021/04/09 05:13:34;;;;;;;8.57;2.55;;;2.00;76.20;;;;;;5133233;27;20034;-74
2021/04/09 05:16:00;;;;;;;11.30;2.30;;;2.20;77.10;;;;;;5133133;27;20023;-74
2021/04/09 05:18:25;;;;;;;6.60;2.22;;;2.30;75.00;;;;;;5132894;27;20038;-74
2021/04/09 05:20:51;;;;;;;5.50;2.90;;;2.30;73.70;;;;;;5133105;27;20050;-74
2021/04/09 05:23:17;;;;;;;5.43;2.60;;;2.40;74.00;;;;;;5133115;27;20019;-74
2021/04/09 05:25:43;;;;;;;11.40;2.65;;;2.30;73.60;;;;;;5133025;27;20438;-74
2021/04/09 05:28:08;;;;;;;15.20;2.65;;;2.30;73.60;;;;;;5132947;27;20026;-74
2021/04/09 05:30:34;;;;;;;8.40;2.83;;;2.50;74.20;;;;;;5132893;28;20418;-74
2021/04/09 05:33:00;;;;;;;6.60;2.08;;;2.50;73.10;;;;;;5132768;27;20023;-74
2021/04/09 05:35:26;;;;;;;9.45;2.85;;;2.50;72.80;;;;;;5132904;28;20383;-74
2021/04/09 05:37:53;;;;;;;9.70;2.08;;;2.50;73.50;;;;;;5127422;28;20020;-75
2021/04/09 05:40:18;;;;;;;6.68;2.72;;;2.60;73.40;;;;;;5091886;28;20047;-74
2021/04/09 05:42:45;;;;;;;25.42;4.63;;;2.80;71.90;;;;;;5091863;28;20063;-74
2021/04/09 05:45:12;;;;;;;3.05;1.88;;;2.80;72.10;;;;;;5091937;28;20476;-74
2021/04/09 05:47:37;;;;;;;4.60;2.22;;;2.90;71.50;;;;;;5091683;28;20022;-74
2021/04/09 05:50:04;;;;;;;12.25;2.50;;;3.00;72.30;;;;;;5091784;28;20051;-74
2021/04/09 05:52:30;;;;;;;13.25;3.15;;;3.10;71.50;;;;;;5091644;28;20027;-74
2021/04/09 05:54:55;;;;;;;18.70;5.13;;;3.10;71.70;;;;;;5090500;28;20032;-74
2021/04/09 05:57:21;;;;;;;4.85;2.45;;;3.10;71.70;;;;;;5091635;28;20024;-74
2021/04/09 05:59:47;;;;;;;4.40;2.03;;;3.20;70.40;;;;;;5091615;28;20125;-74
2021/04/09 06:02:13;;;;;;;4.68;2.00;;;3.30;69.40;;;;;;5091468;28;20012;-74
2021/04/09 06:04:42;;;;;;;11.63;2.35;;;3.30;69.90;;;;;;5095631;28;20048;-74
2021/04/09 06:07:08;;;;;;;11.93;2.55;;;3.40;69.70;;;;;;5098062;28;20029;-74
2021/04/09 06:09:34;;;;;;;8.95;1.88;;;3.40;70.00;;;;;;5107937;28;20035;-74
2021/04/09 06:12:00;;;;;;;7.57;2.47;;;3.50;69.30;;;;;;5110953;28;20020;-75
2021/04/09 06:14:26;;;;;;;6.55;2.05;;;3.60;68.50;;;;;;5091512;28;20059;-75
2021/04/09 06:16:52;;;;;;;8.60;1.92;;;3.70;68.10;;;;;;5116806;28;20459;-74
2021/04/09 06:19:18;;;;;;;7.63;1.98;;;3.70;68.60;;;;;;5133506;27;20098;-74
2021/04/09 06:21:44;;;;;;;7.40;4.35;;;3.80;68.50;;;;;;5124535;27;20107;-74
2021/04/09 06:24:10;;;;;;;7.38;2.15;;;3.90;68.70;;;;;;5115722;28;20023;-74
2021/04/09 06:26:36;;;;;;;10.75;2.38;;;4.00;68.90;;;;;;5115745;28;20092;-74
2021/04/09 06:29:03;;;;;;;9.00;2.42;;;4.00;69.00;;;;;;5115350;28;20415;-74
2021/04/09 06:31:29;;;;;;;6.40;2.15;;;4.10;69.00;;;;;;5115729;28;20032;-74
2021/04/09 06:33:56;;;;;;;5.65;2.22;;;4.20;68.70;;;;;;5102923;27;20031;-74
2021/04/09 06:36:23;;;;;;;6.10;2.50;;;4.20;67.50;;;;;;5099412;28;20024;-74
2021/04/09 06:38:49;;;;;;;8.25;2.47;;;4.20;67.80;;;;;;5115254;28;20479;-74
2021/04/09 06:41:15;;;;;;;17.15;3.13;;;4.30;67.20;;;;;;5115451;28;20028;-74
2021/04/09 06:43:41;;;;;;;4.25;2.30;;;4.30;67.20;;;;;;5115390;28;20035;-74
2021/04/09 06:46:06;;;;;;;15.82;3.13;;;4.40;67.20;;;;;;5115246;28;20024;-74
2021/04/09 06:48:33;;;;;;;6.75;2.38;;;4.60;67.00;;;;;;5118778;22;20043;-71
2021/04/09 06:51:00;;;;;;;8.35;2.53;;;4.70;65.90;;;;;;5094862;28;20024;-71
2021/04/09 06:53:27;;;;;;;8.85;3.25;;;4.80;65.30;;;;;;5094805;28;20024;-71
2021/04/09 06:55:53;;;;;;;9.00;2.50;;;4.90;65.60;;;;;;5094660;28;20044;-71
2021/04/09 06:58:20;;;;;;;4.63;2.10;;;5.00;64.80;;;;;;5094091;28;20028;-72
2021/04/09 07:00:56;;;;;;;7.00;2.60;;;5.00;64.80;;;;;;5094346;28;20228;-72
2021/04/09 07:03:22;;;;;;;14.90;2.80;;;5.10;65.70;;;;;;5094720;28;20359;-72
2021/04/09 07:05:51;;;;;;;4.43;1.80;;;5.20;65.60;;;;;;5094528;28;20174;-71
2021/04/09 07:08:17;;;;;;;13.32;3.25;;;5.30;65.40;;;;;;5094229;28;20035;-71
2021/04/09 07:10:42;;;;;;;9.98;2.95;;;5.30;64.70;;;;;;5094323;28;20020;-72
2021/04/09 07:13:10;;;;;;;4.20;2.40;;;5.50;65.60;;;;;;5094338;28;20085;-72
2021/04/09 07:15:39;;;;;;;14.77;4.63;;;5.50;64.20;;;;;;5094385;28;20107;-72
2021/04/09 07:18:06;;;;;;;6.22;2.72;;;5.60;64.20;;;;;;5095588;28;20017;-72
2021/04/09 07:20:34;;;;;;;5.22;2.20;;;5.80;64.20;;;;;;5120628;27;20042;-72
2021/04/09 07:23:01;;;;;;;9.25;2.63;;;5.90;63.40;;;;;;5125154;27;20470;-72
2021/04/09 07:25:29;;;;;;;15.95;2.45;;;6.00;64.30;;;;;;5112830;27;20034;-71
2021/04/09 07:28:11;;;;;;;5.07;1.85;;;6.10;62.30;;;;;;5117913;27;20493;-72
2021/04/09 07:30:38;;;;;;;6.32;2.10;;;6.20;61.40;;;;;;5121420;27;20495;-72
2021/04/09 07:33:06;;;;;;;12.82;3.13;;;6.30;61.70;;;;;;5127816;27;20478;-72
2021/04/09 07:35:52;;;;;;;6.43;2.80;;;6.40;61.70;;;;;;5125078;27;20027;-72
2021/04/09 07:38:39;;;;;;;5.45;2.72;;;6.40;61.70;;;;;;5125128;27;20027;-72
2021/04/09 07:41:10;;;;;;;5.57;2.10;;;6.50;62.20;;;;;;5112769;27;20063;-71
2021/04/09 07:43:41;;;;;;;14.35;2.67;;;6.50;62.00;;;;;;5119808;27;20020;-72
2021/04/09 07:46:27;;;;;;;8.52;2.47;;;6.70;61.40;;;;;;5127130;27;20474;-72
2021/04/09 07:49:05;;;;;;;10.40;2.33;;;6.70;60.20;;;;;;5122359;27;20394;-71
2021/04/09 07:51:31;;;;;;;9.70;2.28;;;6.80;60.20;;;;;;5117801;27;20106;-72
2021/04/09 07:54:10;;;;;;;13.68;2.92;;;7.00;60.40;;;;;;5125131;27;20119;-72
2021/04/09 07:56:43;;;;;;;10.60;2.72;;;7.10;58.90;;;;;;5122726;27;20053;-72
2021/04/09 07:59:09;;;;;;;9.10;2.22;;;7.30;59.20;;;;;;5124189;27;20043;-72
2021/04/09 08:01:46;;;;;;;7.57;2.33;;;7.50;58.10;;;;;;5114186;27;20082;-72
2021/04/09 08:04:12;;;;;;;19.55;2.78;;;7.70;58.10;;;;;;5121848;27;20111;-72
2021/04/09 08:06:38;;;;;;;11.23;2.42;;;7.90;56.70;;;;;;5126681;27;20496;-72
2021/04/09 08:09:06;;;;;;;5.53;1.83;;;8.00;56.50;;;;;;5117272;27;20098;-71
2021/04/09 08:11:37;;;;;;;5.82;2.10;;;8.20;56.90;;;;;;5121601;27;20023;-72
2021/04/09 08:14:12;;;;;;;14.18;2.30;;;8.30;56.60;;;;;;5118294;27;20028;-72
2021/04/09 08:16:42;;;;;;;10.43;2.72;;;8.60;56.10;;;;;;5116266;27;20080;-72
2021/04/09 08:19:26;;;;;;;7.60;1.90;;;8.90;55.60;;;;;;5115469;27;20292;-72
2021/04/09 08:21:56;;;;;;;8.60;3.33;;;9.20;54.70;;;;;;5119211;27;20031;-72
2021/04/09 08:24:26;;;;;;;5.13;2.08;;;9.40;54.90;;;;;;5119807;27;20026;-72
2021/04/09 08:26:52;;;;;;;10.10;3.45;;;9.60;53.60;;;;;;5116455;27;20077;-72
2021/04/09 08:29:20;;;;;;;15.27;3.05;;;9.90;53.10;;;;;;5116874;27;20028;-72
2021/04/09 08:31:47;;;;;;;10.52;2.70;;;10.00;52.20;;;;;;5116794;27;20023;-72
2021/04/09 08:34:16;;;;;;;8.07;2.20;;;10.30;52.20;;;;;;5118524;27;20485;-72
2021/04/09 08:36:43;;;;;;;6.35;2.05;;;10.50;51.60;;;;;;5119566;27;20027;-74
2021/04/09 08:39:11;;;;;;;5.75;1.67;;;10.70;51.60;;;;;;5116065;27;20024;-72
2021/04/09 08:41:42;;;;;;;7.85;2.60;;;10.90;49.70;;;;;;5116133;27;20055;-74
2021/04/09 08:44:09;;;;;;;16.50;2.27;;;11.20;49.90;;;;;;5120324;27;20478;-74
2021/04/09 08:46:36;;;;;;;22.30;2.58;;;11.30;49.40;;;;;;5127460;27;20838;-74
2021/04/09 08:49:04;;;;;;;16.77;3.17;;;11.50;48.50;;;;;;5121494;27;21160;-74
2021/04/09 08:51:30;;;;;;;10.35;3.50;;;11.80;47.10;;;;;;5126307;27;20387;-74
2021/04/09 08:54:31;;;;;;;5.78;2.47;;;11.90;48.20;;;;;;5125698;27;20031;-74
2021/04/09 08:56:58;;;;;;;7.88;2.47;;;12.10;46.60;;;;;;5119757;27;20031;-74
2021/04/09 08:59:41;;;;;;;7.38;2.72;;;12.20;44.80;;;;;;5115151;27;20106;-74
2021/04/09 09:02:28;;;;;;;7.25;2.22;;;12.30;45.30;;;;;;5118959;27;20019;-74
2021/04/09 09:05:06;;;;;;;5.85;1.65;;;12.50;45.80;;;;;;5121854;27;20055;-75
2021/04/09 09:07:43;;;;;;;5.90;2.00;;;12.60;43.60;;;;;;5124906;27;20441;-74
2021/04/09 09:10:27;;;;;;;8.50;1.83;;;13.00;43.90;;;;;;5116790;27;20030;-74
2021/04/09 09:13:05;;;;;;;8.95;2.15;;;13.20;43.80;;;;;;5121918;27;20378;-75
2021/04/09 09:15:43;;;;;;;9.82;4.60;;;13.70;43.40;;;;;;5120611;27;20046;-74
2021/04/09 09:18:31;;;;;;;5.45;1.92;;;13.70;40.50;;;;;;5118678;27;20470;-75
2021/04/09 09:21:15;;;;;;;4.68;1.75;;;13.90;39.90;;;;;;5114646;27;20023;-74
2021/04/09 09:23:43;;;;;;;5.05;1.70;;;14.20;40.70;;;;;;5110965;27;20076;-75
2021/04/09 09:26:22;;;;;;;11.48;1.88;;;14.40;38.70;;;;;;5124254;27;20500;-75
2021/04/09 09:29:07;;;;;;;4.03;1.70;;;14.60;40.10;;;;;;5113646;28;20024;-75
2021/04/09 09:31:35;;;;;;;8.82;2.05;;;14.70;39.90;;;;;;5121750;27;20023;-75
2021/04/09 09:34:21;;;;;;;2.92;1.67;;;14.70;39.20;;;;;;5130793;27;20045;-75
2021/04/09 09:37:19;;;;;;;9.07;1.98;;;14.90;40.20;;;;;;5113981;28;20071;-75
2021/04/09 09:39:54;;;;;;;3.33;2.10;;;15.20;40.50;;;;;;5132277;27;20027;-75
2021/04/09 09:42:26;;;;;;;5.63;2.00;;;15.70;39.50;;;;;;5132603;28;20045;-75
2021/04/09 09:44:53;;;;;;;9.65;2.45;;;15.90;38.10;;;;;;5132332;27;20530;-75
2021/04/09 09:47:20;;;;;;;21.73;2.97;;;16.30;37.30;;;;;;5132426;27;20420;-75
2021/04/09 09:52:55;;;;;;;6.00;3.13;;;16.60;36.50;;;;;;5132634;27;20492;-76
2021/04/09 09:55:26;;;;;;;13.38;2.13;;;17.00;35.10;;;;;;5123422;27;20021;-76
2021/04/09 09:58:02;;;;;;;5.75;2.10;;;17.20;33.50;;;;;;5095461;28;20023;-76
2021/04/09 10:00:33;;;;;;;15.50;2.00;;;16.90;33.40;;;;;;5095123;28;20565;-75
2021/04/09 10:03:19;;;;;;;4.65;1.63;;;17.30;36.10;;;;;;5095328;28;20107;-75
2021/04/09 10:05:54;;;;;;;6.30;1.92;;;17.70;33.80;;;;;;5094164;28;20105;-75
2021/04/09 10:08:21;;;;;;;11.48;2.22;;;17.70;33.30;;;;;;5095047;28;20119;-75
2021/04/09 10:11:02;;;;;;;7.38;1.70;;;18.00;34.80;;;;;;5093774;28;20047;-75
2021/04/09 10:13:28;;;;;;;7.78;1.55;;;18.10;32.00;;;;;;5095501;28;20095;-74
2021/04/09 10:16:17;;;;;;;3.25;1.60;;;18.20;29.80;;;;;;5093860;28;20132;-75
2021/04/09 10:18:49;;;;;;;11.45;2.42;;;17.90;29.20;;;;;;5095094;28;20555;-75
2021/04/09 10:21:17;;;;;;;5.47;1.60;;;18.20;30.70;;;;;;5095124;28;20024;-75
2021/04/09 10:23:45;;;;;;;8.32;1.60;;;18.50;28.50;;;;;;5095506;28;20479;-75
2021/04/09 10:26:12;;;;;;;5.57;1.98;;;18.70;30.40;;;;;;5095142;28;20035;-75
2021/04/09 10:28:39;;;;;;;6.75;1.40;;;18.80;30.60;;;;;;5093788;28;20028;-75
2021/04/09 10:31:08;;;;;;;10.65;1.98;;;19.00;29.40;;;;;;5095258;28;20031;-75
2021/04/09 10:33:39;;;;;;;8.55;2.45;;;19.40;30.00;;;;;;5095547;28;20024;-74
2021/04/09 10:36:28;;;;;;;2.42;1.35;;;19.40;28.10;;;;;;5093669;28;20020;-75
2021/04/09 10:38:55;;;;;;;7.10;1.70;;;19.40;28.40;;;;;;5094833;28;20031;-75
2021/04/09 10:41:30;;;;;;;5.78;2.05;;;19.70;28.60;;;;;;5095054;28;20016;-75
2021/04/09 10:43:59;;;;;;;2.15;1.40;;;19.70;28.10;;;;;;5094861;28;20071;-75
2021/04/09 10:46:27;;;;;;;4.38;1.20;;;19.90;27.30;;;;;;5094693;28;20024;-75
2021/04/09 10:49:05;;;;;;;5.35;1.50;;;20.00;27.40;;;;;;5094765;28;20566;-75
2021/04/09 10:51:32;;;;;;;4.80;1.83;;;20.30;26.30;;;;;;5093164;28;20020;-75
2021/04/09 10:53:59;;;;;;;6.20;1.60;;;20.20;26.80;;;;;;5093283;28;20025;-75
2021/04/09 10:56:24;;;;;;;3.42;2.30;;;20.30;28.20;;;;;;5094406;28;20451;-74
2021/04/09 10:58:50;;;;;;;6.10;1.88;;;20.60;28.60;;;;;;5094400;28;20099;-75
2021/04/09 11:01:17;;;;;;;5.57;1.70;;;20.50;27.10;;;;;;5093322;28;20024;-75
2021/04/09 11:03:43;;;;;;;2.85;1.33;;;20.60;27.70;;;;;;5094692;28;20450;-75
2021/04/09 11:06:10;;;;;;;7.85;1.77;;;20.80;25.60;;;;;;5093759;28;20028;-75
2021/04/09 11:08:38;;;;;;;3.08;1.38;;;20.40;28.10;;;;;;5094424;28;20332;-75
2021/04/09 11:11:11;;;;;;;6.72;1.17;;;19.90;27.50;;;;;;5094256;28;20425;-75
2021/04/09 11:13:39;;;;;;;4.53;1.13;;;20.20;28.20;;;;;;5094426;28;20035;-73
2021/04/09 11:16:07;;;;;;;5.28;1.38;;;20.70;26.60;;;;;;5094139;28;20033;-73
2021/04/09 11:18:47;;;;;;;3.42;1.60;;;20.30;26.60;;;;;;5094076;28;20050;-74
2021/04/09 11:21:14;;;;;;;3.42;1.42;;;20.40;25.40;;;;;;5094117;28;20081;-73
2021/04/09 11:23:40;;;;;;;3.83;1.42;;;20.30;27.60;;;;;;5092643;28;20028;-74
2021/04/09 11:26:21;;;;;;;16.33;2.30;;;20.30;25.80;;;;;;5094063;28;20093;-74
2021/04/09 11:28:53;;;;;;;3.63;1.80;;;20.30;26.50;;;;;;5093789;28;20032;-73
2021/04/09 11:31:26;;;;;;;3.63;1.45;;;19.90;26.80;;;;;;5093835;28;20024;-73
2021/04/09 11:34:09;;;;;;;2.88;1.17;;;19.50;26.80;;;;;;5093862;28;20051;-73
2021/04/09 11:36:50;;;;;;;7.32;1.50;;;18.80;27.30;;;;;;5093757;28;20024;-73
2021/04/09 11:39:20;;;;;;;2.38;1.55;;;18.60;28.10;;;;;;5092799;28;20043;-74
2021/04/09 11:42:00;;;;;;;5.30;1.52;;;19.00;27.20;;;;;;5092068;28;20031;-74
2021/04/09 11:44:36;;;;;;;3.45;1.60;;;19.50;26.20;;;;;;5094064;28;20060;-74
2021/04/09 11:47:25;;;;;;;4.55;1.25;;;19.60;27.60;;;;;;5092658;28;20036;-74
2021/04/09 11:50:09;;;;;;;6.70;1.65;;;19.00;26.00;;;;;;5093046;28;20040;-74
2021/04/09 11:53:01;;;;;;;7.00;1.40;;;18.60;28.60;;;;;;5093553;28;20020;-73
2021/04/09 11:55:30;;;;;;;6.00;1.35;;;18.50;27.80;;;;;;5093335;28;20016;-74
2021/04/09 11:57:56;;;;;;;2.65;1.30;;;18.70;29.60;;;;;;5092247;28;20030;-73
2021/04/09 12:00:29;;;;;;;7.13;1.88;;;18.70;28.50;;;;;;5093098;28;20042;-73
2021/04/09 12:02:58;;;;;;;2.05;1.40;;;18.90;28.80;;;;;;5075191;28;20488;-74
2021/04/09 12:05:29;;;;;;;6.57;3.38;;;19.00;29.80;;;;;;5093267;28;20387;-74
2021/04/09 12:07:55;;;;;;;5.50;1.55;;;19.10;28.40;;;;;;5075040;28;20394;-74
2021/04/09 12:10:23;;;;;;;4.60;1.75;;;19.30;28.30;;;;;;5093082;28;20059;-74
2021/04/09 12:12:50;;;;;;;9.85;1.77;;;19.30;28.60;;;;;;5093067;28;20479;-74
2021/04/09 12:15:16;;;;;;;6.50;1.77;;;19.70;28.70;;;;;;5091752;28;20031;-74
2021/04/09 12:17:42;;;;;;;4.38;1.55;;;19.70;28.70;;;;;;5092232;28;20032;-74
2021/04/09 12:20:17;;;;;;;4.15;1.40;;;19.50;27.80;;;;;;5091612;28;20016;-74
2021/04/09 12:22:44;;;;;;;6.55;2.03;;;19.30;26.10;;;;;;5092955;28;20016;-73
2021/04/09 12:25:11;;;;;;;3.22;1.50;;;19.30;28.10;;;;;;5092984;28;20467;-74
2021/04/09 12:27:38;;;;;;;3.75;1.40;;;19.00;26.40;;;;;;5092960;28;20019;-74
2021/04/09 12:30:06;;;;;;;1.98;1.52;;;18.60;27.70;;;;;;5091260;28;20028;-72
2021/04/09 12:32:33;;;;;;;7.95;1.75;;;18.30;27.00;;;;;;5091935;27;20044;-74
2021/04/09 12:34:59;;;;;;;4.03;1.30;;;18.40;27.90;;;;;;5111829;28;20069;-74
2021/04/09 12:37:24;;;;;;;3.55;1.40;;;18.40;27.00;;;;;;5113195;28;20024;-74
2021/04/09 12:39:50;;;;;;;4.38;2.35;;;18.50;26.50;;;;;;5112503;28;20027;-74
2021/04/09 12:42:17;;;;;;;3.47;1.75;;;18.40;26.80;;;;;;5113290;28;20527;-73
2021/04/09 12:44:43;;;;;;;13.05;2.50;;;18.50;27.90;;;;;;5112984;28;20019;-73
2021/04/09 12:47:09;;;;;;;4.55;1.60;;;18.20;27.10;;;;;;5113015;28;20027;-74
2021/04/09 12:49:35;;;;;;;4.65;1.70;;;18.00;27.10;;;;;;5112597;28;20031;-73
2021/04/09 12:52:01;;;;;;;6.45;2.35;;;17.60;27.00;;;;;;5082500;22;20052;-74
2021/04/09 12:54:27;;;;;;;6.60;1.65;;;17.60;28.40;;;;;;5040313;28;20048;-74
2021/04/09 12:56:54;;;;;;;3.28;1.73;;;17.70;29.40;;;;;;5071434;28;20017;-74
2021/04/09 12:59:22;;;;;;;3.55;1.77;;;17.50;30.40;;;;;;5072253;28;20024;-74
2021/04/09 13:01:48;;;;;;;8.30;3.58;;;17.50;28.10;;;;;;5072514;28;20077;-74
2021/04/09 13:04:14;;;;;;;4.22;1.90;;;17.40;28.30;;;;;;5072145;28;20375;-75